createdAt,value
2018-12-04T00:02:09.194Z,12.70
2018-12-04T00:04:47.278Z,12.70
2018-12-04T00:07:21.334Z,12.70
2018-12-04T00:09:55.407Z,12.60
2018-12-04T00:12:29.467Z,12.60
2018-12-04T00:15:03.778Z,12.60
2018-12-04T00:17:37.818Z,12.60
2018-12-04T00:20:11.992Z,12.60
2018-12-04T00:22:46.036Z,12.70
2018-12-04T00:25:20.106Z,12.60
2018-12-04T00:27:54.194Z,12.70
2018-12-04T00:30:28.245Z,12.70
2018-12-04T00:33:02.370Z,12.70
2018-12-04T00:35:36.436Z,12.70
2018-12-04T00:38:10.482Z,12.70
2018-12-04T00:40:44.662Z,12.70
2018-12-04T00:43:18.709Z,12.70
2018-12-04T00:45:52.781Z,12.60
2018-12-04T00:48:27.926Z,12.70
2018-12-04T00:51:02.359Z,12.70
2018-12-04T00:53:36.411Z,12.60
2018-12-04T00:56:10.577Z,12.80
2018-12-04T00:58:44.618Z,12.70
2018-12-04T01:01:18.785Z,12.80
2018-12-04T01:03:52.826Z,12.80
2018-12-04T01:06:26.890Z,12.80
2018-12-04T01:09:01.413Z,12.80
2018-12-04T01:11:36.671Z,12.80
2018-12-04T01:14:10.721Z,12.80
2018-12-04T01:16:44.790Z,12.80
2018-12-04T01:19:18.921Z,12.80
2018-12-04T01:21:52.990Z,12.80
2018-12-04T01:24:27.095Z,12.80
2018-12-04T01:27:01.407Z,12.80
2018-12-04T01:29:35.445Z,12.90
2018-12-04T01:32:09.525Z,12.90
2018-12-04T01:34:43.597Z,12.90
2018-12-04T01:37:17.655Z,12.90
2018-12-04T01:39:51.732Z,12.90
2018-12-04T01:42:25.798Z,13.00
2018-12-04T01:45:00.265Z,12.90
2018-12-04T01:47:34.652Z,12.90
2018-12-04T01:50:09.628Z,12.90
2018-12-04T01:52:44.222Z,13.00
2018-12-04T01:55:23.178Z,13.00
2018-12-04T01:57:57.241Z,13.00
2018-12-04T02:00:31.305Z,12.90
2018-12-04T02:03:05.373Z,12.90
2018-12-04T02:05:39.441Z,12.80
2018-12-04T02:08:14.517Z,12.80
2018-12-04T02:10:48.637Z,12.80
2018-12-04T02:13:22.717Z,12.80
2018-12-04T02:15:56.758Z,12.80
2018-12-04T02:18:30.901Z,12.90
2018-12-04T02:21:05.360Z,12.90
2018-12-04T02:23:39.561Z,12.90
2018-12-04T02:26:13.830Z,12.90
2018-12-04T02:28:47.987Z,12.90
2018-12-04T02:31:22.060Z,12.90
2018-12-04T02:33:57.100Z,13.00
2018-12-04T02:36:31.153Z,12.90
2018-12-04T02:39:07.662Z,13.00
2018-12-04T02:41:41.718Z,12.90
2018-12-04T02:44:16.028Z,13.00
2018-12-04T02:46:56.535Z,12.90
2018-12-04T02:49:31.773Z,12.90
2018-12-04T02:52:05.842Z,13.00
2018-12-04T02:54:39.888Z,12.90
2018-12-04T02:57:13.946Z,12.90
2018-12-04T02:59:48.029Z,12.90
2018-12-04T03:02:22.098Z,12.90
2018-12-04T03:04:56.151Z,12.90
2018-12-04T03:07:30.314Z,12.90
2018-12-04T03:10:05.235Z,12.80
2018-12-04T03:12:39.307Z,12.80
2018-12-04T03:15:13.495Z,12.90
2018-12-04T03:17:47.539Z,12.90
2018-12-04T03:20:21.717Z,12.90
2018-12-04T03:22:55.786Z,12.90
2018-12-04T03:25:29.864Z,12.90
2018-12-04T03:28:04.030Z,12.90
2018-12-04T03:30:40.130Z,13.00
2018-12-04T03:33:24.396Z,12.90
2018-12-04T03:35:58.450Z,12.80
2018-12-04T03:38:32.530Z,12.80
2018-12-04T03:41:06.579Z,12.80
2018-12-04T03:43:40.614Z,12.80
2018-12-04T03:46:15.743Z,12.80
2018-12-04T03:48:49.777Z,12.80
2018-12-04T03:51:23.854Z,12.90
2018-12-04T03:53:57.900Z,12.80
2018-12-04T03:56:31.957Z,12.80
2018-12-04T03:59:06.003Z,12.70
2018-12-04T04:01:40.119Z,12.80
2018-12-04T04:04:14.155Z,12.80
2018-12-04T04:06:48.335Z,12.80
2018-12-04T04:09:23.459Z,12.80
2018-12-04T04:11:57.519Z,12.80
2018-12-04T04:14:31.566Z,12.80
2018-12-04T04:17:06.159Z,12.80
2018-12-04T04:19:40.202Z,12.80
2018-12-04T04:22:14.258Z,12.80
2018-12-04T04:24:48.566Z,12.80
2018-12-04T04:27:22.618Z,12.80
2018-12-04T04:29:56.858Z,12.80
2018-12-04T04:32:30.936Z,12.80
2018-12-04T04:35:06.268Z,12.90
2018-12-04T04:37:40.343Z,12.90
2018-12-04T04:40:14.378Z,12.90
2018-12-04T04:42:48.443Z,12.90
2018-12-04T04:45:22.706Z,12.80
2018-12-04T04:47:56.747Z,12.80
2018-12-04T04:50:30.785Z,12.70
2018-12-04T04:53:04.851Z,12.80
2018-12-04T04:55:38.885Z,12.70
2018-12-04T04:58:12.939Z,12.70
2018-12-04T05:00:46.978Z,12.70
2018-12-04T05:03:21.063Z,12.80
2018-12-04T05:05:55.111Z,12.90
2018-12-04T05:08:29.198Z,12.80
2018-12-04T05:11:03.240Z,12.70
2018-12-04T05:13:37.299Z,12.70
2018-12-04T05:16:11.339Z,12.70
2018-12-04T05:18:45.391Z,12.60
2018-12-04T05:21:19.457Z,12.60
2018-12-04T05:23:53.505Z,12.70
2018-12-04T05:26:27.541Z,12.50
2018-12-04T05:29:01.610Z,12.50
2018-12-04T05:31:35.802Z,12.50
2018-12-04T05:34:09.974Z,12.60
2018-12-04T05:36:44.015Z,12.50
2018-12-04T05:39:18.077Z,12.50
2018-12-04T05:41:52.123Z,12.60
2018-12-04T05:44:26.176Z,12.60
2018-12-04T05:47:00.198Z,12.60
2018-12-04T05:49:34.538Z,12.50
2018-12-04T05:52:08.603Z,12.50
2018-12-04T05:54:42.656Z,12.40
2018-12-04T05:57:16.703Z,12.00
2018-12-04T05:59:50.775Z,12.00
2018-12-04T06:02:24.837Z,11.90
2018-12-04T06:04:58.923Z,12.10
2018-12-04T06:07:32.947Z,12.00
2018-12-04T06:10:07.479Z,11.90
2018-12-04T06:12:41.588Z,11.90
2018-12-04T06:15:15.640Z,12.00
2018-12-04T06:17:50.822Z,12.10
2018-12-04T06:20:26.153Z,12.10
2018-12-04T06:23:00.213Z,12.20
2018-12-04T06:25:36.110Z,12.20
2018-12-04T06:28:10.145Z,12.20
2018-12-04T06:30:44.202Z,12.20
2018-12-04T06:33:18.274Z,12.30
2018-12-04T06:35:52.309Z,12.50
2018-12-04T06:38:26.374Z,12.30
2018-12-04T06:41:00.411Z,12.20
2018-12-04T06:43:34.522Z,12.20
2018-12-04T06:46:08.563Z,12.00
2018-12-04T06:48:42.629Z,12.00
2018-12-04T06:51:16.679Z,11.90
2018-12-04T06:53:50.730Z,11.90
2018-12-04T06:56:24.796Z,12.00
2018-12-04T06:58:58.867Z,12.00
2018-12-04T07:01:32.950Z,12.00
2018-12-04T07:04:07.010Z,11.80
2018-12-04T07:06:41.173Z,11.70
2018-12-04T07:09:15.233Z,11.60
2018-12-04T07:11:49.267Z,11.60
2018-12-04T07:14:23.320Z,11.60
2018-12-04T07:16:57.351Z,11.70
2018-12-04T07:19:31.407Z,11.60
2018-12-04T07:22:05.453Z,11.60
2018-12-04T07:24:40.406Z,11.70
2018-12-04T07:27:14.442Z,11.70
2018-12-04T07:29:48.586Z,11.70
2018-12-04T07:32:23.010Z,11.70
2018-12-04T07:34:57.072Z,11.70
2018-12-04T07:37:31.096Z,11.70
2018-12-04T07:40:06.926Z,11.80
2018-12-04T07:42:40.960Z,11.60
2018-12-04T07:45:15.027Z,11.50
2018-12-04T07:47:49.053Z,11.60
2018-12-04T07:50:23.118Z,11.60
2018-12-04T07:52:57.191Z,11.60
2018-12-04T07:55:31.262Z,11.60
2018-12-04T07:58:05.321Z,11.50
2018-12-04T08:00:39.371Z,11.60
2018-12-04T08:03:13.435Z,11.60
2018-12-04T08:05:47.491Z,11.70
2018-12-04T08:08:21.551Z,11.60
2018-12-04T08:10:55.614Z,11.60
2018-12-04T08:13:29.674Z,11.50
2018-12-04T08:16:03.825Z,11.60
2018-12-04T08:18:37.922Z,11.60
2018-12-04T08:21:11.988Z,11.60
2018-12-04T08:23:46.094Z,11.70
2018-12-04T08:26:20.131Z,11.70
2018-12-04T08:28:54.194Z,11.70
2018-12-04T08:31:28.254Z,11.80
2018-12-04T08:34:02.315Z,11.80
2018-12-04T08:36:36.355Z,11.80
2018-12-04T08:39:13.032Z,11.80
2018-12-04T08:41:46.450Z,11.90
2018-12-04T08:44:20.513Z,12.00
2018-12-04T08:46:54.554Z,12.00
2018-12-04T08:49:28.627Z,12.00
2018-12-04T08:52:03.298Z,12.00
2018-12-04T08:54:37.355Z,12.00
2018-12-04T08:57:11.390Z,12.00
2018-12-04T08:59:45.447Z,12.00
2018-12-04T09:02:19.490Z,12.00
2018-12-04T09:04:53.545Z,12.10
2018-12-04T09:07:27.575Z,12.10
2018-12-04T09:10:01.643Z,12.10
2018-12-04T09:12:35.790Z,12.20
2018-12-04T09:15:09.865Z,12.20
2018-12-04T09:17:44.913Z,12.20
2018-12-04T09:20:19.015Z,12.30
2018-12-04T09:22:53.066Z,12.30
2018-12-04T09:25:27.131Z,12.40
2018-12-04T09:28:01.488Z,12.30
2018-12-04T09:30:35.575Z,12.40
2018-12-04T09:33:09.621Z,12.30
2018-12-04T09:35:43.878Z,12.40
2018-12-04T09:38:17.919Z,12.30
2018-12-04T09:40:51.987Z,12.40
2018-12-04T09:43:26.094Z,12.40
2018-12-04T09:46:00.160Z,12.40
2018-12-04T09:48:34.515Z,12.40
2018-12-04T09:51:08.557Z,12.40
2018-12-04T09:53:42.634Z,12.30
2018-12-04T09:56:16.686Z,12.40
2018-12-04T09:58:50.751Z,12.40
2018-12-04T10:01:24.802Z,12.40
2018-12-04T10:03:59.208Z,12.40
2018-12-04T10:06:33.252Z,12.40
2018-12-04T10:09:08.888Z,12.30
2018-12-04T10:11:42.938Z,12.30
2018-12-04T10:14:17.014Z,12.30
2018-12-04T10:16:51.059Z,12.20
2018-12-04T10:19:25.234Z,12.30
2018-12-04T10:22:00.372Z,12.20
2018-12-04T10:24:34.453Z,12.10
2018-12-04T10:27:08.511Z,12.00
2018-12-04T10:29:42.787Z,12.10
2018-12-04T10:32:16.994Z,12.00
2018-12-04T10:34:51.062Z,12.00
2018-12-04T10:37:25.106Z,12.10
2018-12-04T10:39:59.178Z,12.10
2018-12-04T10:42:35.325Z,12.20
2018-12-04T10:45:09.384Z,12.10
2018-12-04T10:47:43.867Z,12.10
2018-12-04T10:50:17.914Z,12.10
2018-12-04T10:52:51.942Z,12.10
2018-12-04T10:55:26.001Z,12.10
2018-12-04T10:58:00.135Z,12.20
2018-12-04T11:00:38.539Z,12.20
2018-12-04T11:03:13.272Z,12.20
2018-12-04T11:05:49.471Z,12.20
2018-12-04T11:08:23.512Z,12.20
2018-12-04T11:10:57.570Z,12.30
2018-12-04T11:13:31.607Z,12.30
2018-12-04T11:16:07.698Z,12.20
2018-12-04T11:18:41.729Z,12.20
2018-12-04T11:21:16.098Z,12.20
2018-12-04T11:23:50.335Z,12.20
2018-12-04T11:26:24.401Z,12.20
2018-12-04T11:28:58.434Z,12.30
2018-12-04T11:31:32.634Z,12.30
2018-12-04T11:34:06.679Z,12.40
2018-12-04T11:36:40.730Z,12.50
2018-12-04T11:39:14.769Z,12.40
2018-12-04T11:41:48.836Z,12.40
2018-12-04T11:44:24.117Z,12.50
2018-12-04T11:46:58.380Z,12.40
2018-12-04T11:49:32.439Z,12.50
2018-12-04T11:52:06.493Z,12.50
2018-12-04T11:54:40.559Z,12.50
2018-12-04T11:57:15.854Z,12.50
2018-12-04T11:59:49.902Z,12.50
2018-12-04T12:02:23.973Z,12.50
2018-12-04T12:04:58.011Z,12.50
2018-12-04T12:07:34.059Z,12.60
2018-12-04T12:10:08.254Z,12.60
2018-12-04T12:12:42.304Z,12.60
2018-12-04T12:15:18.304Z,12.60
2018-12-04T12:17:52.402Z,12.60
2018-12-04T12:20:26.466Z,12.60
2018-12-04T12:23:00.505Z,12.70
2018-12-04T12:25:34.580Z,12.70
2018-12-04T12:28:13.798Z,12.70
2018-12-04T12:30:47.884Z,12.60
2018-12-04T12:33:21.915Z,12.60
2018-12-04T12:35:55.982Z,12.60
2018-12-04T12:38:30.126Z,12.60
2018-12-04T12:41:04.326Z,12.70
2018-12-04T12:43:38.370Z,12.60
2018-12-04T12:46:12.457Z,12.60
2018-12-04T12:48:46.580Z,12.50
2018-12-04T12:51:20.859Z,12.60
2018-12-04T12:53:54.942Z,12.60
2018-12-04T12:56:29.014Z,12.60
2018-12-04T12:59:03.709Z,12.50
2018-12-04T13:01:39.862Z,12.50
2018-12-04T13:04:13.901Z,12.40
2018-12-04T13:06:47.974Z,12.40
2018-12-04T13:09:22.017Z,12.40
2018-12-04T13:11:56.086Z,12.30
2018-12-04T13:14:30.121Z,12.40
2018-12-04T13:17:04.411Z,12.30
2018-12-04T13:19:39.542Z,12.30
2018-12-04T13:22:13.609Z,12.30
2018-12-04T13:24:47.674Z,12.30
2018-12-04T13:27:21.842Z,12.30
2018-12-04T13:29:55.900Z,12.30
2018-12-04T13:32:30.032Z,12.30
2018-12-04T13:35:04.716Z,12.30
2018-12-04T13:37:38.799Z,12.30
2018-12-04T13:40:13.108Z,12.20
2018-12-04T13:42:47.215Z,12.20
2018-12-04T13:45:21.595Z,12.20
2018-12-04T13:47:55.646Z,12.20
2018-12-04T13:50:30.707Z,12.20
2018-12-04T13:53:04.808Z,12.20
2018-12-04T13:55:38.932Z,12.30
2018-12-04T13:58:13.031Z,12.30
2018-12-04T14:00:47.300Z,12.30
2018-12-04T14:03:21.399Z,12.30
2018-12-04T14:05:55.551Z,12.30
2018-12-04T14:08:29.617Z,12.30
2018-12-04T14:11:04.024Z,12.40
2018-12-04T14:13:38.153Z,12.40
2018-12-04T14:16:12.209Z,12.40
2018-12-04T14:18:47.772Z,12.30
2018-12-04T14:21:21.894Z,12.30
2018-12-04T14:23:55.936Z,12.30
2018-12-04T14:26:30.026Z,12.30
2018-12-04T14:29:04.308Z,12.30
2018-12-04T14:31:38.399Z,12.30
2018-12-04T14:34:12.447Z,12.30
2018-12-04T14:36:46.498Z,12.30
2018-12-04T14:39:20.547Z,12.30
2018-12-04T14:41:54.612Z,12.30
2018-12-04T14:44:29.696Z,12.20
2018-12-04T14:47:03.791Z,12.20
2018-12-04T14:49:37.856Z,12.10
2018-12-04T14:52:12.162Z,12.10
2018-12-04T14:54:46.229Z,12.20
2018-12-04T14:57:20.353Z,12.10
2018-12-04T14:59:54.503Z,12.30
2018-12-04T15:02:28.702Z,12.10
2018-12-04T15:05:02.945Z,12.10
2018-12-04T15:07:39.710Z,12.00
2018-12-04T15:10:14.036Z,11.90
2018-12-04T15:12:48.229Z,11.90
2018-12-04T15:15:24.772Z,11.90
2018-12-04T15:17:59.043Z,11.80
2018-12-04T15:20:33.289Z,11.70
2018-12-04T15:23:07.484Z,11.60
2018-12-04T15:25:41.767Z,11.40
2018-12-04T15:28:15.911Z,11.30
2018-12-04T15:30:50.041Z,11.30
2018-12-04T15:33:24.150Z,11.40
2018-12-04T15:35:58.273Z,11.40
2018-12-04T15:38:32.323Z,11.30
2018-12-04T15:41:06.208Z,11.50
2018-12-04T15:43:40.513Z,11.60
2018-12-04T15:46:14.622Z,11.70
2018-12-04T15:48:48.790Z,11.70
2018-12-04T15:51:22.866Z,11.70
2018-12-04T15:53:56.933Z,11.60
2018-12-04T15:56:34.903Z,11.60
2018-12-04T15:59:08.961Z,11.50
2018-12-04T16:01:43.012Z,11.50
2018-12-04T16:04:18.150Z,11.50
2018-12-04T16:06:52.342Z,11.40
2018-12-04T16:09:26.397Z,11.50
2018-12-04T16:12:00.843Z,11.50
2018-12-04T16:14:35.030Z,11.30
2018-12-04T16:19:56.548Z,11.20
2018-12-04T16:22:42.303Z,11.10
2018-12-04T16:25:16.577Z,11.20
2018-12-04T16:27:57.749Z,11.20
2018-12-04T16:30:31.996Z,11.30
2018-12-04T16:33:06.095Z,11.20
2018-12-04T16:35:40.174Z,11.30
2018-12-04T16:38:15.457Z,11.20
2018-12-04T16:40:49.675Z,11.30
2018-12-04T16:43:23.759Z,11.30
2018-12-04T16:45:58.086Z,11.20
2018-12-04T16:48:32.163Z,11.20
2018-12-04T16:51:06.625Z,11.30
2018-12-04T16:53:40.747Z,11.20
2018-12-04T16:56:14.800Z,11.20
2018-12-04T16:58:48.973Z,11.20
2018-12-04T17:01:24.199Z,11.20
2018-12-04T17:03:58.275Z,11.20
2018-12-04T17:06:32.323Z,11.20
2018-12-04T17:09:11.762Z,11.10
2018-12-04T17:11:46.883Z,11.20
2018-12-04T17:14:20.946Z,11.00
2018-12-04T17:16:55.098Z,10.80
2018-12-04T17:19:30.266Z,10.70
2018-12-04T17:22:04.462Z,10.70
2018-12-04T17:24:38.543Z,10.70
2018-12-04T17:27:12.702Z,10.80
2018-12-04T17:29:46.804Z,10.80
2018-12-04T17:32:24.106Z,10.80
2018-12-04T17:35:00.616Z,10.80
2018-12-04T17:37:34.842Z,10.90
2018-12-04T17:40:08.961Z,10.90
2018-12-04T17:42:43.086Z,10.90
2018-12-04T17:45:18.168Z,10.90
2018-12-04T17:47:52.359Z,10.90
2018-12-04T17:50:26.453Z,10.90
2018-12-04T17:53:03.033Z,10.90
2018-12-04T17:55:37.480Z,10.90
2018-12-04T17:58:13.665Z,10.90
2018-12-04T18:00:48.894Z,10.90
2018-12-04T18:03:22.966Z,10.70
2018-12-04T18:05:58.214Z,10.40
2018-12-04T18:08:32.279Z,10.40
2018-12-04T18:11:08.604Z,10.50
2018-12-04T18:13:42.776Z,10.70
2018-12-04T18:16:16.858Z,10.70
2018-12-04T18:18:51.917Z,10.70
2018-12-04T18:21:26.088Z,10.80
2018-12-04T18:24:00.219Z,10.80
2018-12-04T18:26:35.266Z,10.80
2018-12-04T18:29:09.415Z,10.80
2018-12-04T18:31:43.718Z,10.90
2018-12-04T18:34:17.939Z,10.80
2018-12-04T18:36:51.990Z,10.80
2018-12-04T18:39:26.208Z,10.80
2018-12-04T18:42:00.310Z,11.20
2018-12-04T18:44:34.668Z,11.10
2018-12-04T18:47:08.920Z,11.00
2018-12-04T18:49:42.990Z,10.90
2018-12-04T18:52:18.055Z,11.00
2018-12-04T18:54:52.129Z,10.80
2018-12-04T18:57:26.194Z,10.80
2018-12-04T19:00:00.602Z,10.70
2018-12-04T19:02:34.646Z,10.70
2018-12-04T19:05:08.856Z,10.70
2018-12-04T19:07:43.085Z,10.80
2018-12-04T19:10:17.254Z,10.80
2018-12-04T19:12:52.495Z,10.70
2018-12-04T19:15:26.762Z,10.50
2018-12-04T19:18:02.350Z,10.10
2018-12-04T19:20:36.921Z,10.20
2018-12-04T19:23:10.982Z,10.30
2018-12-04T19:25:45.267Z,10.40
2018-12-04T19:28:19.453Z,10.40
2018-12-04T19:30:53.534Z,10.40
2018-12-04T19:33:28.857Z,10.40
2018-12-04T19:36:03.282Z,10.40
2018-12-04T19:38:37.395Z,10.40
2018-12-04T19:41:11.623Z,10.40
2018-12-04T19:43:46.847Z,10.30
2018-12-04T19:46:21.951Z,10.20
2018-12-04T19:48:56.015Z,10.10
2018-12-04T19:51:30.533Z,10.10
2018-12-04T19:54:04.882Z,10.20
2018-12-04T19:56:39.122Z,10.10
2018-12-04T19:59:13.210Z,10.10
2018-12-04T20:01:47.353Z,10.20
2018-12-04T20:04:21.459Z,10.20
2018-12-04T20:06:55.621Z,10.30
2018-12-04T20:09:29.800Z,10.20
2018-12-04T20:12:05.162Z,10.20
2018-12-04T20:14:39.262Z,10.30
2018-12-04T20:17:13.340Z,10.30
2018-12-04T20:19:47.402Z,10.30
2018-12-04T20:22:25.504Z,10.40
2018-12-04T20:24:59.708Z,10.30
2018-12-04T20:27:33.794Z,10.30
2018-12-04T20:30:08.822Z,10.40
2018-12-04T20:32:42.888Z,10.30
2018-12-04T20:35:17.051Z,10.20
2018-12-04T20:37:51.169Z,10.20
2018-12-04T20:40:31.371Z,9.80
2018-12-04T20:43:01.745Z,9.60
2018-12-04T20:45:35.864Z,9.60
2018-12-04T20:48:10.144Z,9.80
2018-12-04T20:50:44.459Z,9.90
2018-12-04T20:53:18.561Z,9.90
2018-12-04T20:55:52.602Z,9.90
2018-12-04T20:58:26.790Z,10.00
2018-12-04T21:01:00.928Z,10.00
2018-12-04T21:03:35.191Z,10.10
2018-12-04T21:06:09.657Z,10.00
2018-12-04T21:08:43.667Z,9.60
2018-12-04T21:11:17.833Z,9.80
2018-12-04T21:13:52.004Z,9.90
2018-12-04T21:16:26.039Z,9.90
2018-12-04T21:19:00.074Z,9.90
2018-12-04T21:21:34.598Z,10.00
2018-12-04T21:24:09.160Z,10.00
2018-12-04T21:26:43.222Z,10.00
2018-12-04T21:29:22.591Z,9.90
2018-12-04T21:32:02.137Z,9.90
2018-12-04T21:34:48.238Z,9.90
2018-12-04T21:37:23.091Z,9.90
2018-12-04T21:42:09.846Z,9.90
2018-12-04T21:44:49.047Z,9.90
2018-12-04T21:47:28.467Z,9.90
2018-12-04T21:50:03.239Z,9.90
2018-12-04T21:52:37.308Z,9.90
2018-12-04T21:55:11.355Z,9.90
2018-12-04T21:57:45.406Z,9.80
2018-12-04T22:00:19.522Z,9.80
2018-12-04T22:02:53.558Z,9.80
2018-12-04T22:05:27.620Z,9.80
2018-12-04T22:08:03.050Z,9.90
2018-12-04T22:10:37.209Z,9.90
2018-12-04T22:13:11.250Z,9.90
2018-12-04T22:15:45.409Z,9.70
2018-12-04T22:18:19.555Z,9.70
2018-12-04T22:20:53.666Z,9.80
2018-12-04T22:23:27.823Z,9.90
2018-12-04T22:26:02.437Z,9.90
2018-12-04T22:28:36.480Z,9.90
2018-12-04T22:31:10.575Z,9.90
2018-12-04T22:33:44.765Z,9.90
2018-12-04T22:36:18.856Z,9.90
2018-12-04T22:38:52.924Z,10.00
2018-12-04T22:41:26.977Z,10.00
2018-12-04T22:44:01.655Z,9.80
2018-12-04T22:46:35.936Z,9.70
2018-12-04T22:49:10.778Z,9.60
2018-12-04T22:51:44.835Z,9.70
2018-12-04T22:54:19.975Z,9.80
2018-12-04T22:56:54.042Z,9.70
2018-12-04T22:59:28.095Z,9.50
2018-12-04T23:02:02.483Z,9.50
2018-12-04T23:04:36.643Z,9.40
2018-12-04T23:07:10.703Z,9.20
2018-12-04T23:09:44.755Z,9.30
2018-12-04T23:12:19.135Z,9.40
2018-12-04T23:14:53.228Z,9.50
2018-12-04T23:17:27.397Z,9.50
2018-12-04T23:20:01.456Z,9.50
2018-12-04T23:22:36.736Z,9.60
2018-12-04T23:25:10.777Z,9.60
2018-12-04T23:27:47.064Z,9.50
2018-12-04T23:30:21.171Z,9.60
2018-12-04T23:32:55.246Z,9.20
2018-12-04T23:35:29.276Z,9.20
2018-12-04T23:38:05.433Z,9.10
2018-12-04T23:40:39.490Z,9.30
2018-12-04T23:43:13.574Z,9.30
2018-12-04T23:45:47.619Z,9.40
2018-12-04T23:48:21.674Z,9.30
2018-12-04T23:50:56.803Z,9.30
2018-12-04T23:53:30.874Z,9.30
2018-12-04T23:56:05.158Z,9.30
2018-12-04T23:58:39.230Z,9.30
